Time;durP1;ratioP1;P1;durP2;ratioP2;P2;SDS_P1;SDS_P2;PMS_P1;PMS_P2;Temp;Humidity;BMP_temperature;BMP_pressure;BME280_temperature;BME280_humidity;BME280_pressure;Samples;Min_cycle;Max_cycle;Signal;HPM_P1;HPM_P2
2021/07/09 00:02:07;;;;;;;17.25;14.03;;;;;;;21.84;90.52;100815.34;1654742;85;25884;-78
2021/07/09 00:04:34;;;;;;;19.30;14.30;;;;;;;21.87;90.59;100809.39;1667135;85;25577;-79
2021/07/09 00:07:01;;;;;;;24.85;14.33;;;;;;;21.88;90.93;100806.09;1632789;85;28506;-80
2021/07/09 00:09:28;;;;;;;18.57;13.93;;;;;;;21.90;90.47;100812.12;1663347;84;25811;-79
2021/07/09 00:11:57;;;;;;;19.95;15.20;;;;;;;21.91;90.47;100805.06;1658036;84;25907;-80
2021/07/09 00:14:28;;;;;;;18.00;14.15;;;;;;;21.90;90.28;100802.04;1655999;85;25993;-79
2021/07/09 00:16:55;;;;;;;17.62;14.18;;;;;;;21.89;90.36;100807.22;1646214;85;25334;-80
2021/07/09 00:19:22;;;;;;;15.80;13.80;;;;;;;21.91;90.40;100823.33;1607506;85;27668;-79
2021/07/09 00:21:50;;;;;;;17.82;14.70;;;;;;;21.90;90.68;100842.95;1646539;85;25851;-79
2021/07/09 00:24:17;;;;;;;19.60;14.90;;;;;;;21.90;91.24;100994.86;1666428;85;25915;-79
2021/07/09 00:26:45;;;;;;;16.25;13.68;;;;;;;21.85;91.21;101013.90;1646916;85;27022;-79
2021/07/09 00:29:12;;;;;;;26.45;14.70;;;;;;;21.86;91.40;101022.34;1654250;85;25871;-79
2021/07/09 00:31:39;;;;;;;18.73;13.95;;;;;;;21.90;91.45;100988.88;1659445;84;27076;-79
2021/07/09 00:34:07;;;;;;;17.52;12.63;;;;;;;21.95;91.23;101007.22;1642360;86;25739;-79
2021/07/09 00:36:38;;;;;;;14.60;12.98;;;;;;;22.08;90.91;101007.69;1654872;84;25935;-80
2021/07/09 00:39:06;;;;;;;;;;;;;;;22.19;90.38;100996.37;1665353;84;25810;-79
2021/07/09 00:41:34;;;;;;;12.53;9.15;;;;;;;22.22;89.26;101002.13;1676309;84;26037;-81
2021/07/09 00:44:02;;;;;;;16.32;9.68;;;;;;;22.21;88.55;101001.03;1679743;84;27608;-79
2021/07/09 00:46:37;;;;;;;14.38;8.50;;;;;;;22.22;88.34;100996.67;1610380;85;26474;-79
2021/07/09 00:49:07;;;;;;;11.00;7.90;;;;;;;22.22;88.04;101002.66;1649891;84;25923;-79
2021/07/09 00:51:35;;;;;;;10.32;9.03;;;;;;;22.20;87.83;101011.11;1679012;84;25773;-79
2021/07/09 00:54:03;;;;;;;13.62;8.15;;;;;;;22.18;87.70;101034.27;1646706;84;25814;-78
2021/07/09 00:56:31;;;;;;;14.33;8.60;;;;;;;22.14;87.72;101050.86;1694130;83;28212;-78
2021/07/09 00:59:00;;;;;;;11.10;7.33;;;;;;;22.10;87.79;101062.00;1691735;84;25729;-79
2021/07/09 01:01:27;;;;;;;11.18;7.42;;;;;;;22.02;87.52;101053.72;1668058;84;26520;-80
2021/07/09 01:03:54;;;;;;;9.95;6.55;;;;;;;21.94;87.47;101068.32;1659388;84;25840;-78
2021/07/09 01:06:21;;;;;;;7.90;5.78;;;;;;;21.86;87.28;101053.72;1645848;84;25887;-79
2021/07/09 01:08:48;;;;;;;6.62;5.97;;;;;;;21.78;86.80;101061.77;1665548;84;27574;-80
2021/07/09 01:11:19;;;;;;;10.20;6.83;;;;;;;21.72;86.97;101066.85;1663897;84;26561;-79
2021/07/09 01:13:46;;;;;;;12.25;5.97;;;;;;;21.61;87.09;101039.13;1651269;84;25846;-78
2021/07/09 01:16:13;;;;;;;7.60;6.08;;;;;;;21.61;87.09;101039.13;1634537;84;25896;-79
2021/07/09 01:18:41;;;;;;;6.90;5.50;;;;;;;21.55;87.18;101037.94;1696014;84;25769;-79
2021/07/09 01:21:09;;;;;;;9.13;6.33;;;;;;;21.46;87.24;101038.36;1694688;83;27416;-79
2021/07/09 01:23:38;;;;;;;6.08;5.47;;;;;;;21.38;87.19;101042.02;1654234;84;25748;-79
2021/07/09 01:26:08;;;;;;;13.75;9.00;;;;;;;21.33;87.21;101050.10;1636718;84;25911;-79
2021/07/09 01:28:36;;;;;;;10.18;7.03;;;;;;;21.30;87.12;101073.74;1697243;83;26650;-79
2021/07/09 01:31:06;;;;;;;7.22;5.72;;;;;;;21.29;87.12;101072.11;1655191;85;25482;-79
2021/07/09 01:33:33;;;;;;;5.65;4.95;;;;;;;21.27;86.94;101060.63;1654714;84;27727;-79
2021/07/09 01:36:00;;;;;;;10.18;5.35;;;;;;;21.23;86.55;101048.57;1698395;83;26553;-79
2021/07/09 01:38:27;;;;;;;8.65;4.92;;;;;;;21.21;86.51;101039.81;1676092;84;25790;-79
2021/07/09 01:40:57;;;;;;;10.03;5.40;;;;;;;21.15;86.44;101022.53;1684405;84;25844;-79
2021/07/09 01:43:24;;;;;;;7.22;5.50;;;;;;;21.11;86.36;100998.75;1679263;83;25902;-80
2021/07/09 01:45:51;;;;;;;10.53;5.53;;;;;;;21.06;86.65;100939.59;1659117;84;27597;-79
2021/07/09 01:48:21;;;;;;;6.35;5.22;;;;;;;20.96;87.53;100893.59;1671698;84;25872;-79
2021/07/09 01:50:48;;;;;;;5.40;4.85;;;;;;;20.81;87.40;100879.76;1671539;83;25846;-79
2021/07/09 01:53:15;;;;;;;6.37;5.47;;;;;;;20.69;87.68;100908.41;1644083;84;25848;-80
2021/07/09 01:55:42;;;;;;;8.78;5.90;;;;;;;20.65;87.89;100928.50;1630656;85;25908;-79
2021/07/09 01:58:10;;;;;;;6.37;4.80;;;;;;;20.67;88.20;100950.02;1682223;84;27437;-79
2021/07/09 02:00:37;;;;;;;6.62;4.60;;;;;;;20.64;87.91;100946.41;1636538;84;25881;-79
2021/07/09 02:03:05;;;;;;;9.53;4.65;;;;;;;20.59;87.88;100953.14;1648410;84;26494;-80
2021/07/09 02:05:32;;;;;;;6.00;5.00;;;;;;;20.57;87.96;100952.00;1653034;83;26626;-79
2021/07/09 02:07:59;;;;;;;8.43;5.22;;;;;;;20.55;88.04;100958.78;1674346;84;26639;-80
2021/07/09 02:10:33;;;;;;;8.15;5.28;;;;;;;20.48;88.15;100949.93;1687140;83;28117;-80
2021/07/09 02:13:01;;;;;;;9.25;5.00;;;;;;;20.43;88.31;100939.77;1682416;84;25864;-80
2021/07/09 02:15:39;;;;;;;9.28;4.92;;;;;;;20.39;88.51;100955.45;1685589;83;26353;-80
2021/07/09 02:18:08;;;;;;;9.38;4.85;;;;;;;20.34;88.86;100939.02;1669864;84;25944;-80
2021/07/09 02:20:35;;;;;;;9.30;5.20;;;;;;;20.27;89.20;100919.31;1673616;84;25377;-79
2021/07/09 02:23:08;;;;;;;11.08;5.20;;;;;;;20.19;89.37;100892.47;1659981;85;27636;-80
2021/07/09 02:25:36;;;;;;;8.03;5.30;;;;;;;20.14;89.83;100876.05;1656642;84;25955;-79
2021/07/09 02:28:05;;;;;;;10.05;5.75;;;;;;;20.08;90.12;100858.78;1663434;84;26532;-80
2021/07/09 02:30:33;;;;;;;11.05;5.72;;;;;;;20.05;90.24;100859.28;1669536;84;25889;-80
2021/07/09 02:33:03;;;;;;;9.10;6.10;;;;;;;20.05;90.56;100820.38;1669350;84;25813;-79
2021/07/09 02:35:34;;;;;;;10.40;6.65;;;;;;;20.00;91.05;100808.34;1634886;85;27568;-80
2021/07/09 02:38:01;;;;;;;8.58;6.28;;;;;;;19.97;91.16;100805.30;1691184;84;25778;-79
2021/07/09 02:40:30;;;;;;;8.20;6.22;;;;;;;19.96;91.49;100813.98;1643352;85;25781;-79
2021/07/09 02:42:59;;;;;;;8.93;7.28;;;;;;;19.97;91.55;100819.69;1649481;84;25899;-79
2021/07/09 02:45:28;;;;;;;10.35;7.97;;;;;;;20.02;91.65;100823.61;1630412;85;26586;-79
2021/07/09 02:47:55;;;;;;;8.90;7.78;;;;;;;20.07;91.92;100840.83;1670390;85;28189;-79
2021/07/09 02:50:24;;;;;;;10.60;8.18;;;;;;;20.13;92.06;100864.86;1652698;85;25967;-79
2021/07/09 02:52:51;;;;;;;11.25;7.72;;;;;;;20.17;91.89;100899.50;1626944;85;25335;-79
2021/07/09 02:55:20;;;;;;;8.60;7.42;;;;;;;20.23;92.00;100906.71;1633789;85;26992;-79
2021/07/09 02:57:47;;;;;;;9.33;7.95;;;;;;;20.27;91.90;100864.91;1694555;84;25927;-79
2021/07/09 03:00:17;;;;;;;10.18;7.42;;;;;;;20.26;92.16;100769.39;1668973;84;27968;-79
2021/07/09 03:02:44;;;;;;;11.55;7.37;;;;;;;20.17;92.41;100712.34;1600445;85;26760;-78
2021/07/09 03:05:12;;;;;;;10.35;6.90;;;;;;;20.10;92.49;100708.98;1643407;84;26500;-79
2021/07/09 03:07:39;;;;;;;8.65;7.72;;;;;;;20.08;92.70;100698.89;1689786;84;25759;-78
2021/07/09 03:10:09;;;;;;;11.08;7.37;;;;;;;20.06;92.75;100685.52;1670311;84;25963;-79
2021/07/09 03:12:38;;;;;;;10.72;8.48;;;;;;;20.06;92.92;100678.72;1642768;84;27520;-79
2021/07/09 03:15:07;;;;;;;11.45;8.28;;;;;;;20.06;93.30;100705.11;1623542;85;26520;-80
2021/07/09 03:17:35;;;;;;;9.20;8.30;;;;;;;20.06;93.41;100693.67;1693688;84;25964;-79
2021/07/09 03:20:05;;;;;;;12.00;8.23;;;;;;;20.06;93.42;100700.47;1645730;85;25872;-79
2021/07/09 03:22:32;;;;;;;11.70;10.03;;;;;;;20.07;93.50;100712.19;1637499;84;25833;-78
2021/07/09 03:24:59;;;;;;;10.13;7.75;;;;;;;20.09;93.35;100715.48;1669851;83;27547;-78
2021/07/09 03:27:26;;;;;;;10.63;7.87;;;;;;;20.13;93.44;100722.08;1688680;84;26320;-79
2021/07/09 03:29:53;;;;;;;11.83;7.97;;;;;;;20.15;93.30;100716.68;1673547;83;26035;-79
2021/07/09 03:32:20;;;;;;;10.05;8.50;;;;;;;20.19;93.23;100712.95;1652046;84;25844;-78
2021/07/09 03:34:47;;;;;;;11.12;9.65;;;;;;;20.24;93.31;100720.68;1640206;84;25445;-78
2021/07/09 03:37:14;;;;;;;12.53;8.93;;;;;;;20.29;94.03;100738.98;1657171;84;27473;-78
2021/07/09 03:39:43;;;;;;;12.90;8.63;;;;;;;20.31;94.43;100796.69;1655124;85;26065;-79
2021/07/09 03:42:10;;;;;;;8.70;7.85;;;;;;;20.34;93.98;100816.59;1627266;83;25967;-79
2021/07/09 03:44:37;;;;;;;15.40;9.33;;;;;;;20.39;93.99;100786.23;1648137;85;25906;-79
2021/07/09 03:47:04;;;;;;;13.03;8.65;;;;;;;20.43;93.87;100757.98;1708662;83;25736;-80
2021/07/09 03:49:31;;;;;;;15.15;8.98;;;;;;;20.48;93.75;100765.71;1653979;84;27541;-79
2021/07/09 03:51:58;;;;;;;11.22;9.20;;;;;;;20.54;93.72;100755.19;1645423;84;25883;-78
2021/07/09 03:54:25;;;;;;;10.82;9.13;;;;;;;20.57;93.64;100739.70;1682807;84;26121;-79
2021/07/09 03:56:52;;;;;;;11.30;9.55;;;;;;;20.62;93.60;100723.99;1662476;84;26568;-79
2021/07/09 03:59:19;;;;;;;12.35;9.33;;;;;;;20.65;93.47;100710.73;1655376;83;25999;-79
2021/07/09 04:01:46;;;;;;;10.25;9.13;;;;;;;20.65;93.53;100703.92;1606947;84;27564;-79
2021/07/09 04:04:13;;;;;;;14.47;10.00;;;;;;;20.64;93.57;100684.56;1684064;83;26008;-79
2021/07/09 04:06:40;;;;;;;10.98;8.70;;;;;;;20.62;94.14;100684.00;1692416;84;25910;-78
2021/07/09 04:09:07;;;;;;;14.13;8.80;;;;;;;20.60;93.74;100686.15;1654328;84;25939;-79
2021/07/09 04:11:34;;;;;;;10.88;9.78;;;;;;;20.62;93.76;100684.53;1646861;84;25837;-79
2021/07/09 04:14:01;;;;;;;9.40;8.48;;;;;;;20.62;93.72;100683.16;1624152;84;27583;-78
2021/07/09 04:16:28;;;;;;;12.65;8.43;;;;;;;20.64;93.89;100690.02;1710393;83;25711;-79
2021/07/09 04:18:55;;;;;;;13.00;9.28;;;;;;;20.65;93.74;100688.13;1655444;84;25884;-79
2021/07/09 04:21:22;;;;;;;12.68;10.20;;;;;;;20.67;93.75;100693.61;1639168;85;26289;-78
2021/07/09 04:23:49;;;;;;;14.10;9.68;;;;;;;20.69;93.79;100695.54;1701725;83;25891;-79
2021/07/09 04:26:18;;;;;;;11.50;8.90;;;;;;;20.74;93.94;100689.34;1704105;83;27596;-79
2021/07/09 04:28:45;;;;;;;11.22;9.48;;;;;;;20.76;93.96;100682.55;1678996;83;25394;-79
2021/07/09 04:31:12;;;;;;;10.08;9.08;;;;;;;20.78;93.73;100680.40;1633397;83;25960;-78
2021/07/09 04:33:40;;;;;;;13.22;10.00;;;;;;;20.80;93.82;100676.62;1667503;84;25965;-79
2021/07/09 04:36:07;;;;;;;10.60;9.38;;;;;;;20.82;93.74;100688.08;1670194;84;25871;-79
2021/07/09 04:38:34;;;;;;;11.20;10.03;;;;;;;20.85;93.85;100677.50;1624436;85;28192;-78
2021/07/09 04:41:01;;;;;;;13.88;9.85;;;;;;;20.87;93.87;100683.52;1627356;84;26020;-79
2021/07/09 04:43:28;;;;;;;12.82;9.48;;;;;;;20.90;93.70;100680.83;1670192;84;25899;-79
2021/07/09 04:45:55;;;;;;;14.33;9.88;;;;;;;20.91;93.79;100676.52;1678165;84;26090;-79
2021/07/09 04:48:22;;;;;;;14.38;10.82;;;;;;;20.95;93.74;100670.02;1650294;83;25848;-78
2021/07/09 04:50:49;;;;;;;16.50;11.53;;;;;;;20.98;94.02;100673.61;1634320;84;28339;-79
2021/07/09 04:53:16;;;;;;;12.55;11.05;;;;;;;21.01;93.89;100683.44;1669816;84;25800;-78
2021/07/09 04:55:43;;;;;;;13.68;10.93;;;;;;;21.06;93.78;100683.55;1673976;84;25865;-79
2021/07/09 04:58:10;;;;;;;14.70;10.32;;;;;;;21.13;93.89;100684.16;1622882;85;25871;-78
2021/07/09 05:00:37;;;;;;;14.87;11.55;;;;;;;21.21;93.87;100689.16;1638600;84;25921;-78
2021/07/09 05:03:04;;;;;;;14.25;10.75;;;;;;;21.32;94.05;100696.38;1679805;84;27628;-77
2021/07/09 05:05:31;;;;;;;12.68;10.18;;;;;;;21.40;93.68;100700.57;1693957;83;26525;-79
2021/07/09 05:07:59;;;;;;;13.32;10.25;;;;;;;21.46;93.36;100688.11;1646839;84;25852;-78
2021/07/09 05:10:26;;;;;;;12.53;9.63;;;;;;;21.53;93.16;100687.91;1659305;85;25686;-78
2021/07/09 05:12:53;;;;;;;15.30;9.60;;;;;;;21.60;93.14;100683.63;1680300;83;25797;-78
2021/07/09 05:15:20;;;;;;;11.35;9.23;;;;;;;21.66;93.19;100690.23;1686372;84;28208;-78
2021/07/09 05:17:47;;;;;;;15.63;10.00;;;;;;;21.75;93.38;100693.33;1662617;84;26005;-78
2021/07/09 05:20:14;;;;;;;13.43;9.85;;;;;;;21.83;93.24;100697.80;1640258;84;25909;-78
2021/07/09 05:22:43;;;;;;;14.20;10.80;;;;;;;21.92;93.01;100710.44;1683414;84;25784;-78
2021/07/09 05:25:11;;;;;;;13.80;11.08;;;;;;;22.01;93.09;100732.05;1681487;84;25814;-78
2021/07/09 05:27:38;;;;;;;17.02;9.55;;;;;;;22.08;92.85;100761.31;1651602;84;27553;-78
2021/07/09 05:30:07;;;;;;;10.90;8.15;;;;;;;22.12;92.44;100771.45;1669436;84;26262;-78
2021/07/09 05:32:34;;;;;;;10.05;8.78;;;;;;;22.13;91.73;100781.27;1703615;83;25898;-78
2021/07/09 05:35:02;;;;;;;11.10;9.23;;;;;;;22.15;92.03;100791.38;1678508;84;25865;-78
2021/07/09 05:37:29;;;;;;;12.53;9.88;;;;;;;22.20;91.94;100802.89;1661903;84;26558;-78
2021/07/09 05:39:56;;;;;;;12.00;8.48;;;;;;;22.25;91.88;100813.87;1655028;83;27652;-78
2021/07/09 05:42:23;;;;;;;9.68;8.58;;;;;;;22.31;92.12;100803.81;1676617;84;26088;-78
2021/07/09 05:44:50;;;;;;;12.40;8.55;;;;;;;22.38;92.13;100788.05;1697609;83;25862;-78
2021/07/09 05:47:17;;;;;;;15.03;8.65;;;;;;;22.45;92.09;100779.95;1663096;83;26477;-78
2021/07/09 05:49:44;;;;;;;10.90;9.00;;;;;;;22.53;92.22;100773.17;1639270;84;25794;-78
2021/07/09 05:52:11;;;;;;;14.68;9.50;;;;;;;22.60;92.38;100765.63;1673928;84;27580;-78
2021/07/09 05:54:38;;;;;;;11.60;9.55;;;;;;;22.66;91.99;100766.77;1679762;84;26606;-77
2021/07/09 05:57:06;;;;;;;16.23;9.68;;;;;;;22.71;91.91;100756.42;1673211;84;26497;-78
2021/07/09 05:59:33;;;;;;;11.10;9.70;;;;;;;22.76;91.84;100749.61;1685128;84;26321;-78
2021/07/09 06:02:00;;;;;;;11.18;9.70;;;;;;;22.78;91.46;100735.98;1673968;84;25949;-78
2021/07/09 06:04:27;;;;;;;13.45;10.10;;;;;;;22.78;90.77;100733.78;1630789;85;28283;-78
2021/07/09 06:06:54;;;;;;;12.03;9.53;;;;;;;22.74;90.09;100737.59;1632238;85;25920;-78
2021/07/09 06:09:21;;;;;;;14.85;9.48;;;;;;;22.71;90.04;100748.23;1667671;83;26062;-78
2021/07/09 06:11:48;;;;;;;12.93;9.75;;;;;;;22.71;90.19;100746.88;1692494;83;25986;-77
2021/07/09 06:14:15;;;;;;;11.43;9.53;;;;;;;22.72;90.16;100743.03;1690138;83;25886;-78
2021/07/09 06:16:42;;;;;;;17.20;9.78;;;;;;;22.74;90.13;100760.81;1625852;84;27626;-78
2021/07/09 06:19:10;;;;;;;13.03;9.53;;;;;;;22.78;90.35;100793.88;1660088;83;44127;-78
2021/07/09 06:21:37;;;;;;;9.20;8.28;;;;;;;22.79;90.46;100828.31;1679093;83;25365;-78
2021/07/09 06:24:05;;;;;;;10.32;9.25;;;;;;;22.79;90.44;100857.81;1710096;83;25946;-78
2021/07/09 06:26:32;;;;;;;13.80;9.60;;;;;;;22.77;90.67;100874.18;1652661;85;25364;-78
2021/07/09 06:29:00;;;;;;;13.62;9.40;;;;;;;22.69;90.39;100883.66;1658727;84;27548;-78
2021/07/09 06:31:27;;;;;;;14.10;9.23;;;;;;;22.63;90.33;100867.48;1654316;84;26263;-78
2021/07/09 06:33:54;;;;;;;16.67;8.60;;;;;;;22.54;90.11;100868.46;1701767;83;25830;-78
2021/07/09 06:36:21;;;;;;;10.72;7.90;;;;;;;22.46;89.54;100870.83;1635377;84;25829;-78
2021/07/09 06:38:48;;;;;;;14.73;7.95;;;;;;;22.36;89.39;100850.27;1634070;84;26056;-78
2021/07/09 06:41:16;;;;;;;12.58;8.30;;;;;;;22.30;89.22;100833.56;1666084;84;27283;-78
2021/07/09 06:43:43;;;;;;;12.05;8.93;;;;;;;22.22;88.92;100792.01;1659656;84;26668;-78
2021/07/09 06:46:11;;;;;;;18.25;8.90;;;;;;;22.17;88.99;100776.14;1650208;83;25859;-77
2021/07/09 06:48:38;;;;;;;13.72;7.67;;;;;;;22.11;89.20;100767.06;1664093;83;26518;-77
2021/07/09 06:51:05;;;;;;;14.98;8.75;;;;;;;22.10;88.93;100739.52;1661258;84;25912;-78
2021/07/09 06:53:32;;;;;;;19.35;8.88;;;;;;;22.07;89.22;100744.64;1692061;84;27489;-78
2021/07/09 06:56:00;;;;;;;15.63;10.38;;;;;;;22.07;89.64;100728.28;1655436;84;25965;-78
2021/07/09 06:58:27;;;;;;;12.80;9.73;;;;;;;22.07;90.03;100731.83;1662436;85;25883;-78
2021/07/09 07:00:54;;;;;;;14.15;10.80;;;;;;;22.12;90.25;100688.77;1601821;84;25891;-78
2021/07/09 07:03:21;;;;;;;19.30;11.73;;;;;;;22.18;91.27;100712.28;1677991;84;26567;-78
2021/07/09 07:05:48;;;;;;;16.82;10.72;;;;;;;22.29;91.80;100696.28;1660727;83;27587;-78
2021/07/09 07:08:23;;;;;;;16.97;11.08;;;;;;;22.37;91.70;100694.42;1693840;83;25884;-78
2021/07/09 07:10:51;;;;;;;14.70;11.12;;;;;;;22.50;92.34;100695.88;1695331;83;26446;-78
2021/07/09 07:13:21;;;;;;;11.25;10.15;;;;;;;22.64;92.44;100695.75;1703683;83;26105;-78
2021/07/09 07:15:48;;;;;;;14.10;11.13;;;;;;;22.78;92.58;100708.67;1678759;83;25861;-79
2021/07/09 07:18:16;;;;;;;14.25;11.50;;;;;;;22.95;93.59;100694.28;1672380;84;28388;-79
2021/07/09 07:20:46;;;;;;;14.75;11.45;;;;;;;23.14;93.62;100705.56;1655887;84;26587;-79
2021/07/09 07:23:17;;;;;;;12.78;11.33;;;;;;;23.34;93.86;100701.59;1678188;84;25942;-79
2021/07/09 07:25:47;;;;;;;12.65;11.03;;;;;;;23.60;94.03;100699.22;1645562;84;25902;-79
2021/07/09 07:28:15;;;;;;;14.30;11.25;;;;;;;23.77;93.36;100690.77;1664373;85;25995;-79
2021/07/09 07:30:42;;;;;;;15.93;12.07;;;;;;;24.01;93.66;100702.02;1645083;85;27547;-79
2021/07/09 07:33:10;;;;;;;13.62;11.48;;;;;;;24.27;93.59;100711.92;1656550;85;26046;-78
2021/07/09 07:35:39;;;;;;;15.03;11.18;;;;;;;24.53;92.85;100714.89;1645178;85;25860;-79
2021/07/09 07:38:07;;;;;;;12.82;10.32;;;;;;;24.67;91.59;100737.90;1672962;84;25936;-79
2021/07/09 07:40:36;;;;;;;11.85;10.55;;;;;;;24.83;91.15;100751.06;1651351;86;25840;-79
2021/07/09 07:43:05;;;;;;;16.32;11.18;;;;;;;24.96;91.84;100758.69;1668625;84;28291;-79
2021/07/09 07:45:34;;;;;;;11.28;10.18;;;;;;;25.09;90.72;100778.12;1650760;84;25537;-78
2021/07/09 07:48:01;;;;;;;13.48;11.48;;;;;;;25.14;89.02;100826.64;1668132;84;25684;-79
2021/07/09 07:50:28;;;;;;;14.13;8.58;;;;;;;25.11;89.04;100871.88;1650814;84;26361;-79
2021/07/09 07:52:55;;;;;;;16.37;9.60;;;;;;;24.77;84.35;100876.81;1647628;84;25656;-78
2021/07/09 07:55:23;;;;;;;11.75;8.95;;;;;;;24.47;85.23;100847.45;1673183;84;27623;-79
2021/07/09 07:57:50;;;;;;;14.40;8.23;;;;;;;24.46;86.56;100898.66;1652896;84;25862;-79
2021/07/09 08:00:18;;;;;;;10.18;8.70;;;;;;;24.37;86.16;100902.20;1666203;84;25851;-78
2021/07/09 08:02:45;;;;;;;11.88;9.05;;;;;;;24.25;86.12;100879.73;1643119;86;25971;-79
2021/07/09 08:05:12;;;;;;;10.32;9.23;;;;;;;24.34;87.33;100901.36;1647634;84;25817;-78
2021/07/09 08:07:41;;;;;;;9.40;8.43;;;;;;;24.26;86.35;100892.31;1671210;84;28096;-78
2021/07/09 08:10:09;;;;;;;12.00;8.40;;;;;;;24.21;85.54;100870.39;1668956;84;25805;-79
2021/07/09 08:12:36;;;;;;;9.85;8.35;;;;;;;24.24;86.14;100879.44;1618513;84;25781;-79
2021/07/09 08:15:06;;;;;;;9.70;7.40;;;;;;;24.28;85.96;100879.17;1633517;84;26474;-78
2021/07/09 08:17:33;;;;;;;8.55;7.65;;;;;;;24.19;84.52;100859.72;1646046;84;25893;-79
2021/07/09 08:20:00;;;;;;;10.65;7.70;;;;;;;24.13;84.90;100833.43;1653739;84;27564;-80
2021/07/09 08:22:27;;;;;;;8.53;7.62;;;;;;;24.15;84.79;100828.51;1627982;84;26792;-79
2021/07/09 08:24:54;;;;;;;8.15;7.03;;;;;;;24.19;84.38;100835.62;1675498;84;25936;-79
2021/07/09 08:27:21;;;;;;;8.28;7.28;;;;;;;24.20;85.48;100821.69;1666617;85;26535;-79
2021/07/09 08:29:48;;;;;;;11.00;6.67;;;;;;;24.19;84.78;100803.60;1682604;84;26516;-79
2021/07/09 08:32:16;;;;;;;10.53;6.28;;;;;;;24.19;84.42;100797.30;1634994;84;27164;-79
2021/07/09 08:34:43;;;;;;;7.72;7.03;;;;;;;24.25;84.38;100783.92;1676322;84;26573;-79
2021/07/09 08:37:10;;;;;;;8.13;6.58;;;;;;;24.31;84.60;100771.88;1682408;84;26475;-78
2021/07/09 08:39:37;;;;;;;8.40;6.55;;;;;;;24.37;84.58;100767.50;1706782;83;26534;-78
2021/07/09 08:42:04;;;;;;;8.63;6.90;;;;;;;24.48;84.95;100769.69;1658109;85;25864;-78
2021/07/09 08:44:31;;;;;;;9.00;7.05;;;;;;;24.59;84.91;100757.64;1625489;84;28350;-78
2021/07/09 08:46:58;;;;;;;7.85;7.05;;;;;;;24.72;84.96;100754.31;1679924;84;26611;-78
2021/07/09 08:49:25;;;;;;;7.28;6.58;;;;;;;24.78;84.25;100747.78;1648962;84;25974;-78
2021/07/09 08:51:52;;;;;;;8.03;7.10;;;;;;;24.88;84.28;100754.61;1632981;84;26585;-78
2021/07/09 08:54:20;;;;;;;8.35;7.15;;;;;;;24.97;84.23;100758.43;1696677;83;25780;-78
2021/07/09 08:56:48;;;;;;;8.15;7.00;;;;;;;25.06;82.97;100762.22;1707166;83;28323;-78
2021/07/09 08:59:15;;;;;;;8.30;7.47;;;;;;;25.15;82.76;100767.41;1674623;84;25854;-78
2021/07/09 09:02:01;;;;;;;9.55;7.65;;;;;;;25.21;83.37;100752.58;1657807;85;26450;-79
2021/07/09 09:04:30;;;;;;;12.28;7.60;;;;;;;25.33;83.21;100736.37;1649735;84;26429;-79
2021/07/09 09:07:07;;;;;;;129.70;33.27;;;;;;;25.42;81.93;100736.92;1648972;85;25848;-77
2021/07/09 09:09:40;;;;;;;11.83;8.80;;;;;;;25.46;81.93;100742.66;1687141;84;27455;-77
2021/07/09 09:12:16;;;;;;;10.65;7.90;;;;;;;25.51;81.21;100737.98;1639452;84;25778;-77
2021/07/09 09:14:51;;;;;;;11.43;8.03;;;;;;;25.56;80.77;100734.37;1661504;84;26515;-78
2021/07/09 09:17:34;;;;;;;8.23;7.10;;;;;;;25.65;81.57;100732.14;1669976;84;25917;-77
2021/07/09 09:20:17;;;;;;;13.22;7.72;;;;;;;25.77;81.83;100723.58;1682524;84;25809;-77
2021/07/09 09:22:55;;;;;;;8.33;7.55;;;;;;;25.87;81.23;100724.33;1660897;84;27388;-79
2021/07/09 09:25:29;;;;;;;10.60;8.13;;;;;;;25.93;80.12;100732.80;1658032;84;25879;-78
2021/07/09 09:28:14;;;;;;;10.90;7.78;;;;;;;25.93;79.88;100727.84;1680136;84;25755;-78
2021/07/09 09:30:44;;;;;;;8.95;8.10;;;;;;;25.95;80.01;100724.27;1700755;83;25859;-79
2021/07/09 09:33:13;;;;;;;8.60;7.80;;;;;;;26.02;79.67;100714.59;1650397;85;26028;-78
2021/07/09 09:35:48;;;;;;;8.75;7.70;;;;;;;26.13;79.40;100717.31;1699647;83;28099;-79
2021/07/09 09:38:17;;;;;;;11.48;8.10;;;;;;;26.20;79.22;100717.23;1653710;83;25877;-78
2021/07/09 09:40:46;;;;;;;13.43;9.57;;;;;;;26.27;80.24;100717.73;1673459;84;26565;-78
2021/07/09 09:43:17;;;;;;;12.43;8.63;;;;;;;26.32;79.31;100711.39;1648230;84;26433;-78
2021/07/09 09:45:45;;;;;;;9.65;8.70;;;;;;;26.35;79.02;100710.80;1657793;85;25838;-78
2021/07/09 09:48:14;;;;;;;11.25;9.00;;;;;;;26.39;79.53;100708.56;1686450;83;28249;-77
2021/07/09 09:50:48;;;;;;;9.03;8.23;;;;;;;26.45;79.35;100710.14;1679054;84;25846;-78
2021/07/09 09:53:20;;;;;;;10.08;9.03;;;;;;;26.48;79.20;100719.74;1659985;84;25739;-78
2021/07/09 09:55:47;;;;;;;9.50;8.50;;;;;;;26.53;79.22;100724.66;1698279;83;26574;-77
2021/07/09 09:58:19;;;;;;;13.00;9.55;;;;;;;26.62;79.67;100721.52;1666582;83;26036;-78
2021/07/09 10:00:49;;;;;;;11.53;9.68;;;;;;;26.71;79.15;100721.16;1699131;83;27597;-78
2021/07/09 10:03:17;;;;;;;10.10;9.08;;;;;;;26.79;79.35;100714.27;1650665;83;26582;-78
2021/07/09 10:05:47;;;;;;;13.43;10.38;;;;;;;26.87;79.46;100710.87;1685339;83;26237;-79
2021/07/09 10:08:16;;;;;;;;;;;;;;;26.97;78.67;100716.25;1706060;83;25866;-78
2021/07/09 10:10:44;;;;;;;13.48;10.50;;;;;;;27.04;78.81;100710.40;1701045;83;26601;-78
2021/07/09 10:13:15;;;;;;;12.55;9.75;;;;;;;27.09;79.67;100708.42;1673376;83;27566;-78
2021/07/09 10:15:44;;;;;;;12.37;10.55;;;;;;;27.21;79.62;100712.95;1683127;83;26240;-78
2021/07/09 10:18:14;;;;;;;10.80;9.63;;;;;;;27.30;79.42;100715.86;1699056;83;26515;-78
2021/07/09 10:20:44;;;;;;;10.48;9.38;;;;;;;27.41;79.30;100716.86;1692402;83;27244;-78
2021/07/09 10:23:15;;;;;;;12.67;10.00;;;;;;;27.45;77.90;100726.16;1649381;84;25926;-78
2021/07/09 10:25:46;;;;;;;11.80;10.53;;;;;;;27.52;78.55;100722.22;1683757;84;27476;-78
2021/07/09 10:28:21;;;;;;;12.68;10.50;;;;;;;27.61;77.69;100714.36;1677864;84;25702;-79
2021/07/09 10:30:49;;;;;;;12.93;10.30;;;;;;;27.73;77.65;100715.31;1670781;83;25783;-78
2021/07/09 10:33:37;;;;;;;15.85;11.50;;;;;;;27.84;78.71;100723.69;1661682;84;25815;-78
2021/07/09 10:36:14;;;;;;;12.23;10.98;;;;;;;27.91;77.76;100725.48;1658975;84;25876;-78
2021/07/09 10:38:42;;;;;;;13.70;10.48;;;;;;;27.98;76.75;100724.59;1670710;84;28179;-78
2021/07/09 10:41:17;;;;;;;13.70;11.25;;;;;;;28.03;76.27;100721.22;1667510;83;26018;-79
2021/07/09 10:44:14;;;;;;;12.78;10.58;;;;;;;28.06;75.96;100702.70;1669127;85;25842;-78
2021/07/09 10:46:42;;;;;;;18.52;11.22;;;;;;;28.15;76.94;100705.59;1648072;85;26554;-78
2021/07/09 10:49:09;;;;;;;12.65;11.40;;;;;;;28.24;76.44;100699.11;1678425;84;26426;-78
2021/07/09 10:51:53;;;;;;;15.85;11.65;;;;;;;28.32;76.75;100692.08;1647355;84;27421;-79
2021/07/09 10:54:29;;;;;;;12.30;10.65;;;;;;;28.49;76.66;100677.17;1637368;84;25661;-79
2021/07/09 10:57:20;;;;;;;16.05;11.00;;;;;;;28.61;76.33;100667.91;1638748;85;25952;-79
2021/07/09 11:00:21;;;;;;;14.85;11.25;;;;;;;28.71;76.43;100672.39;1667259;85;26423;-78
2021/07/09 11:03:04;;;;;;;13.55;10.95;;;;;;;28.79;75.99;100662.84;1665127;85;26588;-78
2021/07/09 11:05:51;;;;;;;11.28;10.18;;;;;;;28.98;74.35;100663.56;1664236;85;27461;-78
2021/07/09 11:08:36;;;;;;;12.23;11.10;;;;;;;29.09;75.23;100654.52;1637819;84;26536;-78
2021/07/09 11:11:15;;;;;;;12.60;11.40;;;;;;;29.25;73.80;100650.91;1678219;84;26003;-78
2021/07/09 11:13:49;;;;;;;11.73;10.70;;;;;;;29.39;73.49;100642.84;1650990;84;25831;-79
2021/07/09 11:16:35;;;;;;;13.08;11.65;;;;;;;29.56;73.79;100642.19;1658754;83;26557;-78
2021/07/09 11:19:09;;;;;;;11.30;10.15;;;;;;;29.68;72.14;100640.50;1672788;84;27458;-78
2021/07/09 11:21:42;;;;;;;11.68;10.48;;;;;;;29.77;71.42;100648.09;1677539;84;25871;-78
2021/07/09 11:24:21;;;;;;;13.18;10.43;;;;;;;29.72;70.92;100646.23;1659341;84;25368;-79
2021/07/09 11:26:53;;;;;;;13.80;11.83;;;;;;;29.75;71.51;100644.83;1658986;84;25778;-79